createdAt,value
2018-01-15T00:01:57.645Z,-0.40
2018-01-15T00:04:25.213Z,-0.30
2018-01-15T00:06:53.472Z,-0.40
2018-01-15T00:09:20.940Z,-0.50
2018-01-15T00:11:48.504Z,-0.30
2018-01-15T00:14:16.000Z,-0.30
2018-01-15T00:16:43.460Z,-0.20
2018-01-15T00:19:10.921Z,-0.10
2018-01-15T00:21:38.399Z,-0.20
2018-01-15T00:24:05.884Z,-0.30
2018-01-15T00:26:33.356Z,-0.30
2018-01-15T00:29:01.596Z,-0.20
2018-01-15T00:31:29.085Z,-0.30
2018-01-15T00:33:56.642Z,-0.10
2018-01-15T00:36:24.188Z,-0.10
2018-01-15T00:38:52.476Z,-0.20
2018-01-15T00:41:19.952Z,-0.20
2018-01-15T00:43:48.188Z,-0.20
2018-01-15T00:46:15.674Z,-0.20
2018-01-15T00:48:43.225Z,-0.20
2018-01-15T00:51:10.705Z,-0.40
2018-01-15T00:53:38.948Z,-0.30
2018-01-15T00:56:06.412Z,-0.40
2018-01-15T00:58:33.888Z,-0.30
2018-01-15T01:01:02.140Z,-0.10
2018-01-15T01:03:29.648Z,-0.20
2018-01-15T01:05:57.147Z,-0.20
2018-01-15T01:08:24.625Z,-0.20
2018-01-15T01:10:52.848Z,-0.20
2018-01-15T01:13:20.398Z,-0.30
2018-01-15T01:15:47.897Z,-0.20
2018-01-15T01:18:15.368Z,-0.20
2018-01-15T01:20:42.848Z,-0.20
2018-01-15T01:23:10.320Z,-0.10
2018-01-15T01:25:37.931Z,0.00
2018-01-15T01:28:05.492Z,-0.10
2018-01-15T01:30:33.764Z,-0.10
2018-01-15T01:33:01.324Z,-0.20
2018-01-15T01:35:29.562Z,-0.30
2018-01-15T01:37:57.028Z,-0.30
2018-01-15T01:40:24.511Z,-0.20
2018-01-15T01:42:51.972Z,-0.30
2018-01-15T01:45:19.529Z,-0.20
2018-01-15T01:47:46.984Z,-0.30
2018-01-15T01:50:15.219Z,-0.30
2018-01-15T01:52:42.716Z,-0.40
2018-01-15T01:55:11.691Z,-0.40
2018-01-15T01:57:39.163Z,-0.40
2018-01-15T02:00:06.732Z,-0.30
2018-01-15T02:02:34.288Z,-0.30
2018-01-15T02:05:01.766Z,-0.30
2018-01-15T02:07:29.991Z,-0.40
2018-01-15T02:09:57.611Z,-0.40
2018-01-15T02:12:25.836Z,-0.20
2018-01-15T02:14:53.295Z,-0.20
2018-01-15T02:17:20.765Z,-0.20
2018-01-15T02:19:48.223Z,-0.30
2018-01-15T02:22:15.785Z,-0.20
2018-01-15T02:24:43.348Z,-0.20
2018-01-15T02:27:10.891Z,-0.20
2018-01-15T02:29:38.364Z,-0.20
2018-01-15T02:32:05.848Z,-0.20
2018-01-15T02:34:33.328Z,-0.20
2018-01-15T02:37:00.908Z,-0.30
2018-01-15T02:39:28.366Z,-0.30
2018-01-15T02:41:55.838Z,-0.30
2018-01-15T02:44:24.811Z,-0.30
2018-01-15T02:46:52.298Z,-0.30
2018-01-15T02:49:19.858Z,-0.20
2018-01-15T02:51:47.337Z,-0.20
2018-01-15T02:54:14.804Z,-0.20
2018-01-15T02:56:42.279Z,-0.10
2018-01-15T02:59:09.829Z,0.00
2018-01-15T03:01:37.333Z,-0.10
2018-01-15T03:04:04.887Z,-0.20
2018-01-15T03:06:32.447Z,-0.10
2018-01-15T03:09:00.704Z,-0.10
2018-01-15T03:11:28.180Z,-0.10
2018-01-15T03:13:55.657Z,-0.10
2018-01-15T03:16:23.118Z,-0.20
2018-01-15T03:18:51.351Z,-0.10
2018-01-15T03:21:19.087Z,-0.20
2018-01-15T03:23:46.564Z,-0.10
2018-01-15T03:26:14.044Z,-0.10
2018-01-15T03:28:41.610Z,-0.10
2018-01-15T03:31:09.159Z,-0.20
2018-01-15T03:33:37.404Z,-0.20
2018-01-15T03:36:04.875Z,-0.20
2018-01-15T03:38:32.351Z,-0.10
2018-01-15T03:40:59.969Z,-0.10
2018-01-15T03:43:27.427Z,0.10
2018-01-15T03:45:54.941Z,0.00
2018-01-15T03:48:22.395Z,0.00
2018-01-15T03:50:49.894Z,0.30
2018-01-15T03:53:17.401Z,0.00
2018-01-15T03:55:44.876Z,0.00
2018-01-15T03:58:13.106Z,0.10
2018-01-15T04:00:40.576Z,0.10
2018-01-15T04:03:08.036Z,0.20
2018-01-15T04:05:37.017Z,0.10
2018-01-15T04:08:04.483Z,0.10
2018-01-15T04:10:31.936Z,0.20
2018-01-15T04:12:59.395Z,0.20
2018-01-15T04:15:26.852Z,0.20
2018-01-15T04:17:54.316Z,0.30
2018-01-15T04:20:22.552Z,0.20
2018-01-15T04:22:50.044Z,0.20
2018-01-15T04:25:17.512Z,0.20
2018-01-15T04:27:45.783Z,0.10
2018-01-15T04:30:13.295Z,0.10
2018-01-15T04:32:40.787Z,0.20
2018-01-15T04:35:08.261Z,0.10
2018-01-15T04:37:35.814Z,0.20
2018-01-15T04:40:03.276Z,0.20
2018-01-15T04:42:30.723Z,0.20
2018-01-15T04:44:59.720Z,0.20
2018-01-15T04:47:27.275Z,0.20
2018-01-15T04:49:55.516Z,0.20
2018-01-15T04:52:23.008Z,0.20
2018-01-15T04:54:50.471Z,0.30
2018-01-15T04:57:17.979Z,0.30
2018-01-15T04:59:45.439Z,0.20
2018-01-15T05:02:12.899Z,0.30
2018-01-15T05:04:40.367Z,0.10
2018-01-15T05:07:07.845Z,0.10
2018-01-15T05:09:35.312Z,0.10
2018-01-15T05:12:02.863Z,0.20
2018-01-15T05:14:31.097Z,0.20
2018-01-15T05:16:58.566Z,0.10
2018-01-15T05:19:26.027Z,0.20
2018-01-15T05:21:53.522Z,0.30
2018-01-15T05:24:20.988Z,0.30
2018-01-15T05:26:49.217Z,0.30
2018-01-15T05:29:16.704Z,0.20
2018-01-15T05:31:44.168Z,0.30
2018-01-15T05:34:11.624Z,0.40
2018-01-15T05:36:39.172Z,0.30
2018-01-15T05:39:06.644Z,0.30
2018-01-15T05:41:34.873Z,0.30
2018-01-15T05:44:02.349Z,0.30
2018-01-15T05:46:29.808Z,0.30
2018-01-15T05:48:57.380Z,0.30
2018-01-15T05:51:24.835Z,0.40
2018-01-15T05:53:52.300Z,0.40
2018-01-15T05:56:20.583Z,0.40
2018-01-15T05:58:48.832Z,0.40
2018-01-15T06:01:16.413Z,0.40
2018-01-15T06:03:44.692Z,0.30
2018-01-15T06:06:12.936Z,0.30
2018-01-15T06:08:40.428Z,0.30
2018-01-15T06:11:08.703Z,0.30
2018-01-15T06:13:36.253Z,0.30
2018-01-15T06:16:04.489Z,0.30
2018-01-15T06:18:31.972Z,0.30
2018-01-15T06:20:59.439Z,0.30
2018-01-15T06:23:26.910Z,0.30
2018-01-15T06:25:55.165Z,0.40
2018-01-15T06:28:22.720Z,0.30
2018-01-15T06:30:50.945Z,0.40
2018-01-15T06:33:18.448Z,0.30
2018-01-15T06:35:46.008Z,0.30
2018-01-15T06:38:14.344Z,0.30
2018-01-15T06:40:41.803Z,0.30
2018-01-15T06:43:09.275Z,0.20
2018-01-15T06:45:36.736Z,0.30
2018-01-15T06:48:04.195Z,0.20
2018-01-15T06:50:31.676Z,0.20
2018-01-15T06:52:59.902Z,0.10
2018-01-15T06:55:27.509Z,0.10
2018-01-15T06:57:56.492Z,0.10
2018-01-15T07:00:25.475Z,0.10
2018-01-15T07:02:52.979Z,0.10
2018-01-15T07:05:20.461Z,0.10
2018-01-15T07:07:48.410Z,0.00
2018-01-15T07:10:16.630Z,0.10
2018-01-15T07:12:44.164Z,0.00
2018-01-15T07:15:11.673Z,0.00
2018-01-15T07:17:39.146Z,-0.10
2018-01-15T07:20:07.388Z,0.00
2018-01-15T07:22:34.948Z,0.00
2018-01-15T07:25:02.517Z,0.00
2018-01-15T07:27:29.980Z,-0.10
2018-01-15T07:29:58.256Z,-0.10
2018-01-15T07:32:25.741Z,-0.20
2018-01-15T07:34:53.205Z,-0.10
2018-01-15T07:37:20.664Z,-0.20
2018-01-15T07:39:48.172Z,-0.20
2018-01-15T07:42:15.728Z,-0.20
2018-01-15T07:44:44.056Z,-0.20
2018-01-15T07:47:11.516Z,-0.10
2018-01-15T07:49:38.984Z,-0.10
2018-01-15T07:52:06.479Z,-0.20
2018-01-15T07:54:34.410Z,-0.20
2018-01-15T07:57:01.912Z,-0.20
2018-01-15T07:59:29.376Z,-0.20
2018-01-15T08:01:57.655Z,-0.30
2018-01-15T08:04:25.907Z,-0.40
2018-01-15T08:06:53.386Z,-0.40
2018-01-15T08:09:21.707Z,-0.20
2018-01-15T08:11:49.207Z,-0.30
2018-01-15T08:14:16.687Z,-0.20
2018-01-15T08:16:44.912Z,0.00
2018-01-15T08:19:12.389Z,0.00
2018-01-15T08:21:39.960Z,0.10
2018-01-15T08:24:07.457Z,0.20
2018-01-15T08:26:34.924Z,0.20
2018-01-15T08:29:02.428Z,0.30
2018-01-15T08:31:29.904Z,0.30
2018-01-15T08:33:58.281Z,0.30
2018-01-15T08:36:26.495Z,0.30
2018-01-15T08:38:53.965Z,0.20
2018-01-15T08:41:21.456Z,0.40
2018-01-15T08:43:48.938Z,0.40
2018-01-15T08:46:17.203Z,0.50
2018-01-15T08:48:45.432Z,0.60
2018-01-15T08:51:12.915Z,0.60
2018-01-15T08:53:40.380Z,0.60
2018-01-15T08:56:07.841Z,0.60
2018-01-15T08:58:36.106Z,0.70
2018-01-15T09:01:03.572Z,0.70
2018-01-15T09:03:31.028Z,0.90
2018-01-15T09:05:59.251Z,1.70
2018-01-15T09:08:26.712Z,1.70
2018-01-15T09:10:54.175Z,1.60
2018-01-15T09:13:21.631Z,1.60
2018-01-15T09:15:49.111Z,1.50
2018-01-15T09:18:18.557Z,1.40
2018-01-15T09:20:46.776Z,1.70
2018-01-15T09:23:14.254Z,1.60
2018-01-15T09:25:41.809Z,2.00
2018-01-15T09:28:09.290Z,2.30
2018-01-15T09:30:37.537Z,2.60
2018-01-15T09:33:05.096Z,2.50
2018-01-15T09:35:32.557Z,2.40
2018-01-15T09:38:00.017Z,2.20
2018-01-15T09:40:27.484Z,2.10
2018-01-15T09:42:54.949Z,2.20
2018-01-15T09:45:23.805Z,2.20
2018-01-15T09:47:51.428Z,2.10
2018-01-15T09:50:18.872Z,2.20
2018-01-15T09:52:46.337Z,2.40
2018-01-15T09:55:13.803Z,2.40
2018-01-15T09:57:41.277Z,2.40
2018-01-15T10:00:08.752Z,2.50
2018-01-15T10:02:36.319Z,2.80
2018-01-15T10:05:03.786Z,2.90
2018-01-15T10:07:31.329Z,3.00
2018-01-15T10:09:59.564Z,4.60
2018-01-15T10:12:27.064Z,4.50
2018-01-15T10:14:54.617Z,5.50
2018-01-15T10:17:22.167Z,6.20
2018-01-15T10:19:49.832Z,6.60
2018-01-15T10:22:17.392Z,7.00
2018-01-15T10:24:44.860Z,7.50
2018-01-15T10:27:12.334Z,7.10
2018-01-15T10:29:39.964Z,6.10
2018-01-15T10:32:07.470Z,5.60
2018-01-15T10:34:34.979Z,6.00
2018-01-15T10:37:02.570Z,7.00
2018-01-15T10:39:30.121Z,6.90
2018-01-15T10:41:57.665Z,6.80
2018-01-15T10:44:25.215Z,6.40
2018-01-15T10:46:52.789Z,6.40
2018-01-15T10:49:20.354Z,6.80
2018-01-15T10:51:47.801Z,6.70
2018-01-15T10:54:15.356Z,6.30
2018-01-15T10:56:42.932Z,5.80
2018-01-15T10:59:10.387Z,5.30
2018-01-15T11:01:37.928Z,5.10
2018-01-15T11:04:05.404Z,5.30
2018-01-15T11:06:33.636Z,6.10
2018-01-15T11:09:01.227Z,6.10
2018-01-15T11:11:28.782Z,6.20
2018-01-15T11:13:56.296Z,6.20
2018-01-15T11:16:23.787Z,6.80
2018-01-15T11:18:51.770Z,7.40
2018-01-15T11:21:19.232Z,7.80
2018-01-15T11:23:46.787Z,7.70
2018-01-15T11:26:14.254Z,7.50
2018-01-15T11:28:41.724Z,7.30
2018-01-15T11:31:09.969Z,7.80
2018-01-15T11:33:37.431Z,7.80
2018-01-15T11:36:04.888Z,7.70
2018-01-15T11:38:32.371Z,8.10
2018-01-15T11:41:00.607Z,9.80
2018-01-15T11:43:28.070Z,9.80
2018-01-15T11:45:55.628Z,10.70
2018-01-15T11:48:23.758Z,11.30
2018-01-15T11:50:51.279Z,11.00
2018-01-15T11:53:19.708Z,9.50
2018-01-15T11:55:47.171Z,9.40
2018-01-15T11:58:14.661Z,8.50
2018-01-15T12:00:42.121Z,8.70
2018-01-15T12:03:10.293Z,9.20
2018-01-15T12:05:37.750Z,9.10
2018-01-15T12:08:05.212Z,9.40
2018-01-15T12:10:33.457Z,9.40
2018-01-15T12:13:00.919Z,9.30
2018-01-15T12:15:28.385Z,9.20
2018-01-15T12:17:55.856Z,9.40
2018-01-15T12:20:24.084Z,9.20
2018-01-15T12:22:51.576Z,9.10
2018-01-15T12:25:19.048Z,9.20
2018-01-15T12:27:47.290Z,8.90
2018-01-15T12:30:14.743Z,8.90
2018-01-15T12:32:42.211Z,8.60
2018-01-15T12:35:09.695Z,9.00
2018-01-15T12:37:37.997Z,9.10
2018-01-15T12:40:06.198Z,7.90
2018-01-15T12:42:33.647Z,7.80
2018-01-15T12:45:01.115Z,6.90
2018-01-15T12:47:29.005Z,6.20
2018-01-15T12:49:56.577Z,5.90
2018-01-15T12:52:24.792Z,5.20
2018-01-15T12:54:52.293Z,5.20
2018-01-15T12:57:19.749Z,5.00
2018-01-15T12:59:47.313Z,4.90
2018-01-15T13:02:14.824Z,4.90
2018-01-15T13:04:42.324Z,5.00
2018-01-15T13:07:21.653Z,5.70
2018-01-15T13:09:49.215Z,6.90
2018-01-15T13:12:16.676Z,7.70
2018-01-15T13:14:44.136Z,8.10
2018-01-15T13:17:11.599Z,8.60
2018-01-15T13:19:39.076Z,9.30
2018-01-15T13:22:07.305Z,9.80
2018-01-15T13:24:34.879Z,9.80
2018-01-15T13:27:02.517Z,9.10
2018-01-15T13:29:29.997Z,8.10
2018-01-15T13:31:57.557Z,7.10
2018-01-15T13:34:25.119Z,6.40
2018-01-15T13:36:52.680Z,6.00
2018-01-15T13:39:20.231Z,5.60
2018-01-15T13:41:47.792Z,5.30
2018-01-15T13:44:15.256Z,5.10
2018-01-15T13:46:44.223Z,5.10
2018-01-15T13:49:11.725Z,5.10
2018-01-15T13:51:39.956Z,4.80
2018-01-15T13:54:07.435Z,4.80
2018-01-15T13:56:34.901Z,4.90
2018-01-15T13:59:03.125Z,5.00
2018-01-15T14:01:30.617Z,4.90
2018-01-15T14:03:58.179Z,4.90
2018-01-15T14:06:27.184Z,4.70
2018-01-15T14:08:54.645Z,4.70
2018-01-15T14:11:22.161Z,4.70
2018-01-15T14:13:49.612Z,4.60
2018-01-15T14:16:17.076Z,4.60
2018-01-15T14:18:44.552Z,4.50
2018-01-15T14:21:12.011Z,4.50
2018-01-15T14:23:39.473Z,4.50
2018-01-15T14:26:06.940Z,4.60
2018-01-15T14:28:35.172Z,4.40
2018-01-15T14:31:02.707Z,4.40
2018-01-15T14:33:30.175Z,4.30
2018-01-15T14:35:57.688Z,4.30
2018-01-15T14:38:27.208Z,4.30
2018-01-15T14:40:56.781Z,4.30
2018-01-15T14:43:24.258Z,4.30
2018-01-15T14:45:52.498Z,4.10
2018-01-15T14:48:19.968Z,4.10
2018-01-15T14:50:47.432Z,4.10
2018-01-15T14:53:14.992Z,4.10
2018-01-15T14:55:42.601Z,4.20
2018-01-15T14:58:10.061Z,4.10
2018-01-15T15:00:37.660Z,4.00
2018-01-15T15:03:05.120Z,3.90
2018-01-15T15:05:32.584Z,4.00
2018-01-15T15:08:00.908Z,3.90
2018-01-15T15:10:28.376Z,3.80
2018-01-15T15:12:55.872Z,3.90
2018-01-15T15:15:24.121Z,3.90
2018-01-15T15:17:51.575Z,3.90
2018-01-15T15:20:19.111Z,3.90
2018-01-15T15:22:46.576Z,3.80
2018-01-15T15:25:14.060Z,3.90
2018-01-15T15:27:41.518Z,3.90
2018-01-15T15:30:08.971Z,3.80
2018-01-15T15:32:36.433Z,3.90
2018-01-15T15:35:03.891Z,3.90
2018-01-15T15:37:31.443Z,3.80
2018-01-15T15:39:58.907Z,3.70
2018-01-15T15:42:26.487Z,3.70
2018-01-15T15:44:53.948Z,3.70
2018-01-15T15:47:22.206Z,3.60
2018-01-15T15:49:49.775Z,3.60
2018-01-15T15:52:18.053Z,3.60
2018-01-15T15:54:45.518Z,3.60
2018-01-15T15:57:13.749Z,3.60
2018-01-15T15:59:41.225Z,3.60
2018-01-15T16:02:08.704Z,3.60
2018-01-15T16:04:36.923Z,3.60
2018-01-15T16:07:04.410Z,3.50
2018-01-15T16:09:31.863Z,3.60
2018-01-15T16:11:59.326Z,3.60
2018-01-15T16:14:26.884Z,3.60
2018-01-15T16:16:55.128Z,3.50
2018-01-15T16:19:22.587Z,3.40
2018-01-15T16:22:01.843Z,3.30
2018-01-15T16:24:30.084Z,3.40
2018-01-15T16:26:57.536Z,3.30
2018-01-15T16:29:24.996Z,3.40
2018-01-15T16:31:52.467Z,3.40
2018-01-15T16:34:19.935Z,3.30
2018-01-15T16:36:47.413Z,3.40
2018-01-15T16:39:14.902Z,3.40
2018-01-15T16:41:43.136Z,3.30
2018-01-15T16:44:10.803Z,3.30
2018-01-15T16:46:38.275Z,3.30
2018-01-15T16:49:06.507Z,3.30
2018-01-15T16:51:33.963Z,3.30
2018-01-15T16:54:01.430Z,3.40
2018-01-15T16:56:28.884Z,3.30
2018-01-15T16:58:56.357Z,3.40
2018-01-15T17:01:23.995Z,3.30
2018-01-15T17:03:51.451Z,3.30
2018-01-15T17:06:18.933Z,3.30
2018-01-15T17:08:46.493Z,3.30
2018-01-15T17:11:13.967Z,3.30
2018-01-15T17:13:41.591Z,3.30
2018-01-15T17:16:09.171Z,3.30
2018-01-15T17:18:36.628Z,3.40
2018-01-15T17:21:04.184Z,3.40
2018-01-15T17:23:31.644Z,3.40
2018-01-15T17:25:59.101Z,3.40
2018-01-15T17:28:26.563Z,3.40
2018-01-15T17:30:58.937Z,3.40
2018-01-15T17:33:26.384Z,3.40
2018-01-15T17:35:53.850Z,3.40
2018-01-15T17:38:21.396Z,3.30
2018-01-15T17:40:48.957Z,3.30
2018-01-15T17:43:16.570Z,3.20
2018-01-15T17:45:44.071Z,3.20
2018-01-15T17:48:11.608Z,3.20
2018-01-15T17:50:39.077Z,3.20
2018-01-15T17:53:06.548Z,3.20
2018-01-15T17:55:34.097Z,3.10
2018-01-15T17:58:01.556Z,3.20
2018-01-15T18:00:29.124Z,3.20
2018-01-15T18:02:56.576Z,3.20
2018-01-15T18:05:24.082Z,3.10
2018-01-15T18:07:51.754Z,3.10
2018-01-15T18:10:19.248Z,3.20
2018-01-15T18:12:46.716Z,3.30
2018-01-15T18:15:14.276Z,3.30
2018-01-15T18:17:41.832Z,3.20
2018-01-15T18:20:09.280Z,3.30
2018-01-15T18:22:36.767Z,3.20
2018-01-15T18:25:04.991Z,3.20
2018-01-15T18:27:32.480Z,3.10
2018-01-15T18:29:59.989Z,3.10
2018-01-15T18:32:27.448Z,3.10
2018-01-15T18:34:54.945Z,3.20
2018-01-15T18:37:22.404Z,3.20
2018-01-15T18:39:49.867Z,3.20
2018-01-15T18:42:18.135Z,3.20
2018-01-15T18:44:46.378Z,3.30
2018-01-15T18:47:13.844Z,3.30
2018-01-15T18:49:41.468Z,3.40
2018-01-15T18:52:08.931Z,3.40
2018-01-15T18:54:36.401Z,3.30
2018-01-15T18:57:03.868Z,3.40
2018-01-15T18:59:31.324Z,3.30
2018-01-15T19:01:58.803Z,3.30
2018-01-15T19:04:26.309Z,3.20
2018-01-15T19:06:53.812Z,3.30
2018-01-15T19:09:21.274Z,3.30
2018-01-15T19:11:48.740Z,3.40
2018-01-15T19:14:16.221Z,3.30
2018-01-15T19:16:44.472Z,3.20
2018-01-15T19:19:11.928Z,3.10
2018-01-15T19:21:39.484Z,3.30
2018-01-15T19:24:06.946Z,3.20
2018-01-15T19:26:34.412Z,3.20
2018-01-15T19:29:02.652Z,3.20
2018-01-15T19:31:30.112Z,3.10
2018-01-15T19:33:57.576Z,3.20
2018-01-15T19:36:30.657Z,3.10
2018-01-15T19:38:58.164Z,3.10
2018-01-15T19:44:30.244Z,3.10
2018-01-15T19:47:03.974Z,3.00
2018-01-15T19:49:37.168Z,3.00
2018-01-15T19:52:10.460Z,3.00
2018-01-15T19:54:43.471Z,3.00
2018-01-15T19:57:16.755Z,3.00
2018-01-15T19:59:49.831Z,3.00
2018-01-15T20:02:23.118Z,3.00
2018-01-15T20:04:56.340Z,3.10
2018-01-15T20:07:29.560Z,3.10
2018-01-15T20:10:03.497Z,3.00
2018-01-15T20:12:30.953Z,3.00
2018-01-15T20:14:58.422Z,3.10
2018-01-15T20:17:25.906Z,3.10
2018-01-15T20:19:53.376Z,3.10
2018-01-15T20:22:20.827Z,3.10
2018-01-15T20:24:48.323Z,3.10
2018-01-15T20:27:16.544Z,3.10
2018-01-15T20:29:44.040Z,3.00
2018-01-15T20:32:12.268Z,3.20
2018-01-15T20:34:39.744Z,3.10
2018-01-15T20:37:07.274Z,3.10
2018-01-15T20:39:34.736Z,3.10
2018-01-15T20:42:02.234Z,3.00
2018-01-15T20:44:29.702Z,3.00
2018-01-15T20:46:57.963Z,2.90
2018-01-15T20:49:25.424Z,2.80
2018-01-15T20:51:52.912Z,2.90
2018-01-15T20:54:21.131Z,2.90
2018-01-15T20:56:48.604Z,2.90
2018-01-15T20:59:16.081Z,3.00
2018-01-15T21:01:44.309Z,2.90
2018-01-15T21:04:11.772Z,2.90
2018-01-15T21:06:39.236Z,3.00
2018-01-15T21:09:06.766Z,3.00
2018-01-15T21:11:34.249Z,3.00
2018-01-15T21:14:01.732Z,3.00
2018-01-15T21:16:29.208Z,2.90
2018-01-15T21:18:57.459Z,3.00
2018-01-15T21:21:25.676Z,3.00
2018-01-15T21:23:53.195Z,3.00
2018-01-15T21:26:20.655Z,3.00
2018-01-15T21:28:48.301Z,3.10
2018-01-15T21:31:15.772Z,3.10
2018-01-15T21:33:43.265Z,3.10
2018-01-15T21:36:10.737Z,3.10
2018-01-15T21:38:38.247Z,3.20
2018-01-15T21:41:05.713Z,3.20
2018-01-15T21:43:34.247Z,3.30
2018-01-15T21:46:01.723Z,3.20
2018-01-15T21:48:29.299Z,3.30
2018-01-15T21:50:56.847Z,3.30
2018-01-15T21:53:25.906Z,3.10
2018-01-15T21:55:53.374Z,3.10
2018-01-15T21:58:20.843Z,3.10
2018-01-15T22:00:48.389Z,3.20
2018-01-15T22:03:15.857Z,3.10
2018-01-15T22:05:43.320Z,3.10
2018-01-15T22:08:10.927Z,3.10
2018-01-15T22:10:38.440Z,3.10
2018-01-15T22:13:05.895Z,3.10
2018-01-15T22:15:33.456Z,3.00
2018-01-15T22:18:00.967Z,3.00
2018-01-15T22:20:28.528Z,3.00
2018-01-15T22:22:55.984Z,3.10
2018-01-15T22:25:23.465Z,3.20
2018-01-15T22:27:50.920Z,3.20
2018-01-15T22:30:18.460Z,3.10
2018-01-15T22:32:45.960Z,3.10
2018-01-15T22:35:13.422Z,3.20
2018-01-15T22:37:40.881Z,3.20
2018-01-15T22:40:08.356Z,3.10
2018-01-15T22:42:36.595Z,3.10
2018-01-15T22:45:04.075Z,3.00
2018-01-15T22:47:31.529Z,3.00
2018-01-15T22:49:59.085Z,3.00
2018-01-15T22:52:26.639Z,3.00
2018-01-15T22:54:54.104Z,3.00
2018-01-15T22:57:21.653Z,3.00
2018-01-15T22:59:49.109Z,3.00
2018-01-15T23:02:17.368Z,3.00
2018-01-15T23:04:44.842Z,3.00
2018-01-15T23:07:12.316Z,3.00
2018-01-15T23:09:40.558Z,3.00
2018-01-15T23:12:08.015Z,3.00
2018-01-15T23:14:35.494Z,3.00
2018-01-15T23:17:02.956Z,3.00
2018-01-15T23:19:31.219Z,3.10
2018-01-15T23:21:58.686Z,3.10
2018-01-15T23:24:26.144Z,3.20
2018-01-15T23:26:53.688Z,3.10
2018-01-15T23:29:21.151Z,3.10
2018-01-15T23:31:48.711Z,3.10
2018-01-15T23:34:16.180Z,3.10
2018-01-15T23:36:44.419Z,3.00
2018-01-15T23:39:11.889Z,3.00
2018-01-15T23:41:39.352Z,3.10
2018-01-15T23:44:08.321Z,3.00
2018-01-15T23:46:35.788Z,3.00
2018-01-15T23:49:03.294Z,3.00
2018-01-15T23:51:31.515Z,3.00
2018-01-15T23:53:58.984Z,3.00
2018-01-15T23:56:26.438Z,3.00
2018-01-15T23:58:54.008Z,2.90
